Time;durP1;ratioP1;P1;durP2;ratioP2;P2;SDS_P1;SDS_P2;PMS_P1;PMS_P2;Temp;Humidity;BMP_temperature;BMP_pressure;BME280_temperature;BME280_humidity;BME280_pressure;Samples;Min_cycle;Max_cycle;Signal;HPM_P1;HPM_P2
2022/10/02 00:02:28;;;;;;;;;5.00;5.00;;;;;16.78;62.04;97911.34;4930307;28;103532;-65
2022/10/02 00:05:19;;;;;;;;;6.00;5.00;;;;;16.76;62.12;97903.38;4914005;28;102582;-64
2022/10/02 00:07:56;;;;;;;;;6.33;6.00;;;;;16.76;61.73;97900.66;4904484;28;102382;-64
2022/10/02 00:10:31;;;;;;;;;6.67;6.00;;;;;16.74;62.07;97902.84;4902034;28;104233;-64
2022/10/02 00:13:00;;;;;;;;;7.00;7.00;;;;;16.73;62.23;97895.72;4914659;28;102168;-65
2022/10/02 00:15:29;;;;;;;;;4.00;4.00;;;;;16.72;62.07;97902.25;4901501;28;102573;-64
2022/10/02 00:17:59;;;;;;;;;6.33;5.67;;;;;16.71;62.18;97905.22;4920377;28;102527;-64
2022/10/02 00:20:37;;;;;;;;;6.33;6.00;;;;;16.70;61.59;97918.09;4923420;28;104080;-64
2022/10/02 00:23:06;;;;;;;;;5.33;5.00;;;;;16.72;62.41;97915.09;4937610;28;102249;-64
2022/10/02 00:25:57;;;;;;;;;6.00;6.00;;;;;16.69;62.51;97921.88;4923163;28;102674;-64
2022/10/02 00:28:33;;;;;;;;;6.00;5.33;;;;;16.72;62.44;97920.53;4910965;28;102532;-64
2022/10/02 00:31:27;;;;;;;;;4.67;4.67;;;;;16.71;62.76;97927.91;4942980;28;106473;-65
2022/10/02 00:34:22;;;;;;;;;5.00;5.00;;;;;16.71;62.61;97925.16;4949734;28;102237;-64
2022/10/02 00:37:01;;;;;;;;;6.00;5.67;;;;;16.71;61.82;97925.16;4921749;28;102361;-64
2022/10/02 00:39:36;;;;;;;;;4.67;4.00;;;;;16.73;62.20;97936.69;4946951;28;102512;-65
2022/10/02 00:42:33;;;;;;;;;5.00;5.00;;;;;16.73;61.85;97939.41;4893652;28;104191;-64
2022/10/02 00:45:35;;;;;;;;;6.67;6.00;;;;;16.74;62.19;97935.59;4924070;28;102114;-65
2022/10/02 00:48:28;;;;;;;;;5.00;5.00;;;;;16.74;61.93;97927.41;4930118;28;102242;-64
2022/10/02 00:51:10;;;;;;;;;5.33;5.00;;;;;16.74;62.07;97941.06;4933164;28;102195;-64
2022/10/02 00:54:05;;;;;;;;;3.00;3.00;;;;;16.73;62.01;97950.31;4942157;28;104069;-65
2022/10/02 00:56:51;;;;;;;;;6.33;4.33;;;;;16.72;62.26;97951.41;4925610;28;102111;-64
2022/10/02 00:59:36;;;;;;;;;4.67;4.00;;;;;16.71;61.92;97952.47;4937680;28;102347;-64
2022/10/02 01:02:07;;;;;;;;;4.00;4.00;;;;;16.72;61.72;97951.41;4932778;28;102274;-64
2022/10/02 01:04:36;;;;;;;;;4.33;4.33;;;;;16.71;61.86;97952.47;4913413;28;104097;-64
2022/10/02 01:07:08;;;;;;;;;6.00;5.00;;;;;16.71;61.98;97966.13;4893230;28;102189;-64
2022/10/02 01:09:41;;;;;;;;;5.00;4.33;;;;;16.70;61.79;97961.75;4927278;28;102401;-64
2022/10/02 01:12:37;;;;;;;;;4.00;4.00;;;;;16.69;61.99;97960.09;4939904;28;103239;-64
2022/10/02 01:16:04;;;;;;;;;3.00;3.00;;;;;16.68;62.31;97966.66;4931280;28;107920;-64
2022/10/02 01:18:54;;;;;;;;;5.00;5.00;;;;;16.68;62.30;97976.72;4936536;28;102305;-64
2022/10/02 01:21:46;;;;;;;;;5.33;4.00;;;;;16.69;62.14;97981.13;4929574;28;102254;-64
2022/10/02 01:24:40;;;;;;;;;5.33;5.33;;;;;16.70;61.33;97980.88;4917089;28;103030;-64
2022/10/02 01:27:17;;;;;;;;;5.00;5.00;;;;;16.71;62.06;97970.75;4928081;28;107997;-63
2022/10/02 01:29:45;;;;;;;;;8.00;5.67;;;;;16.72;61.75;97983.34;4916819;28;102315;-64
2022/10/02 01:32:12;;;;;;;;;6.33;5.00;;;;;16.72;61.74;97986.06;4921140;28;102282;-64
2022/10/02 01:34:39;;;;;;;;;3.33;3.00;;;;;16.72;62.14;97986.88;4952113;28;102229;-64
2022/10/02 01:37:06;;;;;;;;;5.00;5.00;;;;;16.72;62.09;97986.88;4938580;28;104045;-64
2022/10/02 01:39:33;;;;;;;;;4.00;4.00;;;;;16.73;62.04;97983.09;4929538;28;102521;-64
2022/10/02 01:42:01;;;;;;;;;4.67;4.00;;;;;16.73;61.91;97988.53;4943932;28;102065;-64
2022/10/02 01:44:28;;;;;;;;;5.00;4.00;;;;;16.74;61.90;97992.94;4924903;28;102670;-64
2022/10/02 01:47:14;;;;;;;;;4.00;4.00;;;;;16.73;61.80;97988.53;4934079;28;104065;-64
2022/10/02 01:49:41;;;;;;;;;5.00;5.00;;;;;16.73;62.27;97999.47;4933676;28;102537;-64
2022/10/02 01:52:12;;;;;;;;;5.00;4.00;;;;;16.73;61.68;98002.19;4937971;28;102437;-64
2022/10/02 01:54:49;;;;;;;;;5.00;4.33;;;;;16.72;62.12;98000.53;4941683;28;102249;-64
2022/10/02 01:57:48;;;;;;;;;3.33;3.33;;;;;16.72;62.29;98005.16;4934338;28;108880;-64
2022/10/02 02:00:18;;;;;;;;;2.00;2.00;;;;;16.71;61.62;98004.34;4936602;28;102348;-64
2022/10/02 02:02:45;;;;;;;;;5.00;4.67;;;;;16.71;62.10;98009.81;4937069;28;102395;-64
2022/10/02 02:05:27;;;;;;;;;0.00;0.00;;;;;16.71;61.70;98011.69;4952452;28;102392;-64
2022/10/02 02:08:07;;;;;;;;;3.67;3.00;;;;;16.70;61.71;98010.06;4933146;28;108842;-64
2022/10/02 02:10:59;;;;;;;;;6.00;5.00;;;;;16.69;62.30;98017.44;4932520;28;102469;-65
2022/10/02 02:13:56;;;;;;;;;5.33;5.00;;;;;16.70;62.02;98015.53;4944445;28;102352;-64
2022/10/02 02:16:43;;;;;;;;;5.00;4.00;;;;;16.70;61.95;98016.38;4942806;28;102524;-64
2022/10/02 02:19:36;;;;;;;;;4.00;4.00;;;;;16.70;61.64;98021.81;4948948;28;104168;-64
2022/10/02 02:22:08;;;;;;;;;5.00;5.00;;;;;16.71;61.89;98028.91;4910871;28;102925;-64
2022/10/02 02:24:41;;;;;;;;;3.67;3.67;;;;;16.71;61.71;98028.91;4930923;28;102541;-64
2022/10/02 02:27:10;;;;;;;;;5.00;4.00;;;;;16.72;61.42;98030.56;4945352;28;102828;-64
2022/10/02 02:29:37;;;;;;;;;5.00;5.00;;;;;16.72;61.41;98027.84;4914960;28;104038;-64
2022/10/02 02:32:06;;;;;;;;;3.67;3.33;;;;;16.71;61.13;98034.38;4943641;28;102545;-64
2022/10/02 02:34:45;;;;;;;;;3.33;3.33;;;;;16.72;61.71;98037.94;4925063;28;102493;-64
2022/10/02 02:37:15;;;;;;;;;4.67;4.00;;;;;16.72;61.42;98044.22;4942655;28;102197;-64
2022/10/02 02:39:49;;;;;;;;;4.33;4.33;;;;;16.73;62.10;98056.81;4917578;28;104097;-64
2022/10/02 02:42:17;;;;;;;;;4.67;4.67;;;;;16.71;62.29;98049.94;4928062;28;102421;-64
2022/10/02 02:44:53;;;;;;;;;5.00;4.00;;;;;16.69;61.86;98052.94;4916198;28;102187;-62
2022/10/02 02:47:53;;;;;;;;;4.33;3.33;;;;;16.69;61.66;98057.56;4916208;28;102471;-64
2022/10/02 02:50:23;;;;;;;;;5.00;4.00;;;;;16.70;61.84;98054.59;4888695;28;108856;-63
2022/10/02 02:53:02;;;;;;;;;4.00;4.00;;;;;16.67;62.17;98055.06;4899479;28;102589;-64
2022/10/02 02:55:51;;;;;;;;;4.00;4.00;;;;;16.67;62.53;98044.16;4892098;28;102174;-64
2022/10/02 02:58:21;;;;;;;;;6.00;5.00;;;;;16.67;61.57;98048.78;4885650;28;102290;-64
2022/10/02 03:00:48;;;;;;;;;4.00;4.00;;;;;16.65;61.79;98051.78;4889462;28;109469;-62
2022/10/02 03:03:15;;;;;;;;;4.67;4.00;;;;;16.66;61.66;98053.41;4920721;28;102424;-64
2022/10/02 03:06:21;;;;;;;;;3.67;3.67;;;;;16.66;61.45;98050.69;4929264;28;102281;-64
2022/10/02 03:08:50;;;;;;;;;4.00;3.33;;;;;16.67;61.37;98066.00;4907554;28;102183;-62
2022/10/02 03:11:35;;;;;;;;;4.00;4.00;;;;;16.68;61.35;98056.72;4891501;28;104131;-64
2022/10/02 03:14:20;;;;;;;;;6.33;4.67;;;;;16.70;61.22;98067.41;4900500;28;102601;-64
2022/10/02 03:17:22;;;;;;;;;2.00;2.00;;;;;16.70;61.15;98061.94;4931813;28;102326;-64
2022/10/02 03:19:53;;;;;;;;;4.00;4.00;;;;;16.71;61.10;98066.31;4924356;28;102191;-64
2022/10/02 03:22:41;;;;;;;;;3.00;2.67;;;;;16.70;61.44;98070.13;4897180;28;103948;-63
2022/10/02 03:25:25;;;;;;;;;4.00;4.00;;;;;16.71;61.90;98063.56;4900013;28;102303;-64
2022/10/02 03:27:51;;;;;;;;;3.00;3.00;;;;;16.71;61.93;98071.75;4910475;28;102109;-64
2022/10/02 03:30:23;;;;;;;;;2.33;2.33;;;;;16.71;61.88;98075.31;4925322;28;102319;-62
2022/10/02 03:32:52;;;;;;;;;4.33;4.00;;;;;16.69;61.57;98072.03;4888972;28;103864;-64
2022/10/02 03:35:20;;;;;;;;;3.00;3.00;;;;;16.69;61.45;98082.97;4887413;28;102448;-64
2022/10/02 03:37:48;;;;;;;;;3.00;3.00;;;;;16.68;61.59;98078.56;4923068;28;102644;-64
2022/10/02 03:40:15;;;;;;;;;3.33;3.00;;;;;16.67;61.37;98082.38;4894408;28;102371;-64
2022/10/02 03:42:42;;;;;;;;;4.00;3.00;;;;;16.67;61.85;98082.38;4925774;28;104064;-64
2022/10/02 03:45:09;;;;;;;;;3.00;3.00;;;;;16.66;61.38;98088.09;4926437;28;102112;-64
2022/10/02 03:47:53;;;;;;;;;4.33;4.00;;;;;16.65;61.72;98084.53;4911209;28;103142;-64
2022/10/02 03:50:20;;;;;;;;;4.00;3.67;;;;;16.65;61.80;98095.47;4923825;28;102235;-64
2022/10/02 03:52:51;;;;;;;;;3.33;3.00;;;;;16.66;61.70;98083.44;4902891;28;104842;-64
2022/10/02 03:55:17;;;;;;;;;4.00;3.00;;;;;16.66;62.22;98099.81;4919611;28;102427;-64
2022/10/02 03:57:45;;;;;;;;;4.00;3.67;;;;;16.66;62.29;98097.09;4930134;28;102274;-64
2022/10/02 04:00:18;;;;;;;;;3.33;3.00;;;;;16.65;61.38;98095.47;4883336;28;102358;-64
2022/10/02 04:02:52;;;;;;;;;3.00;3.00;;;;;16.66;61.36;98105.28;4885065;28;108889;-64
2022/10/02 04:05:18;;;;;;;;;2.67;2.33;;;;;16.66;61.89;98108.00;4898916;28;104512;-64
2022/10/02 04:07:47;;;;;;;;;5.00;4.00;;;;;16.67;61.76;98108.84;4917056;28;102211;-64
2022/10/02 04:10:43;;;;;;;;;3.00;3.00;;;;;16.68;62.09;98116.78;4908887;28;102365;-64
2022/10/02 04:13:15;;;;;;;;;3.67;3.33;;;;;16.68;61.95;98116.78;4916718;28;108830;-64
2022/10/02 04:15:50;;;;;;;;;4.00;4.00;;;;;16.68;61.35;98116.78;4913114;28;102389;-64
2022/10/02 04:18:38;;;;;;;;;3.00;3.00;;;;;16.68;61.88;98122.25;4918716;28;102199;-64
2022/10/02 04:21:08;;;;;;;;;2.67;2.67;;;;;16.68;61.16;98122.25;4922474;28;102876;-64
2022/10/02 04:23:51;;;;;;;;;4.00;4.00;;;;;16.67;61.77;98136.97;4914411;28;104468;-64
2022/10/02 04:26:22;;;;;;;;;3.00;2.00;;;;;16.67;61.46;98147.06;4931640;28;103031;-64
2022/10/02 04:29:01;;;;;;;;;4.33;4.00;;;;;16.67;61.84;98141.59;4898273;28;102470;-64
2022/10/02 04:31:28;;;;;;;;;3.67;3.67;;;;;16.65;62.49;98150.06;4915190;28;102468;-64
2022/10/02 04:33:58;;;;;;;;;5.00;4.33;;;;;16.66;61.18;98145.44;4893139;28;104270;-64
2022/10/02 04:36:40;;;;;;;;;3.00;3.00;;;;;16.65;61.47;98152.78;4884548;28;102357;-64
2022/10/02 04:39:17;;;;;;;;;3.00;3.00;;;;;16.65;61.86;98160.97;4920072;28;102517;-64
2022/10/02 04:41:56;;;;;;;;;3.00;3.00;;;;;16.65;61.29;98155.53;4899978;28;102318;-64
2022/10/02 04:44:40;;;;;;;;;3.00;3.00;;;;;16.65;61.30;98155.53;4909438;28;108901;-63
2022/10/02 04:47:12;;;;;;;;;2.00;2.00;;;;;16.65;62.07;98163.72;4933626;28;102146;-64
2022/10/02 04:50:03;;;;;;;;;5.00;4.00;;;;;16.66;61.90;98167.28;4917807;28;102337;-64
2022/10/02 04:52:40;;;;;;;;;4.00;3.00;;;;;16.66;62.06;98168.06;4887266;28;102389;-64
2022/10/02 04:55:20;;;;;;;;;2.00;2.00;;;;;16.66;61.60;98170.81;4907835;28;103774;-64
2022/10/02 04:57:54;;;;;;;;;4.00;3.00;;;;;16.66;62.08;98176.25;4907254;28;102218;-64
2022/10/02 05:00:24;;;;;;;;;4.00;3.00;;;;;16.67;61.22;98180.66;4890836;28;102215;-64
2022/10/02 05:03:15;;;;;;;;;3.00;3.00;;;;;16.66;61.90;98184.44;4911817;28;102755;-64
2022/10/02 05:06:27;;;;;;;;;4.00;3.00;;;;;16.67;61.62;98196.19;4916933;28;104051;-64
2022/10/02 05:09:19;;;;;;;;;3.00;3.00;;;;;16.66;61.70;98200.03;4894008;28;102153;-64
2022/10/02 05:11:59;;;;;;;;;3.00;3.00;;;;;16.65;61.13;98191.00;4904740;28;102226;-64
2022/10/02 05:14:30;;;;;;;;;4.67;3.33;;;;;16.66;61.30;98203.56;4922086;28;102697;-64
2022/10/02 05:17:00;;;;;;;;;5.00;4.00;;;;;16.66;61.59;98203.56;4927699;28;104091;-64
2022/10/02 05:19:42;;;;;;;;;3.67;3.00;;;;;16.66;61.97;98198.09;4930254;28;102400;-64
2022/10/02 05:22:27;;;;;;;;;3.33;3.00;;;;;16.66;61.96;98200.81;4920919;28;102497;-64
2022/10/02 05:25:00;;;;;;;;;1.67;1.67;;;;;16.65;62.11;98218.31;4921264;28;102843;-64
2022/10/02 05:27:48;;;;;;;;;3.00;3.00;;;;;16.64;61.51;98213.91;4911989;28;104194;-64
2022/10/02 05:30:18;;;;;;;;;3.33;3.33;;;;;16.63;61.87;98217.72;4926767;28;102275;-64
2022/10/02 05:33:04;;;;;;;;;3.00;3.00;;;;;16.63;61.87;98215.00;4918039;28;102229;-64
2022/10/02 05:35:52;;;;;;;;;3.00;3.00;;;;;16.64;61.95;98222.09;4927002;28;102220;-63
2022/10/02 05:39:06;;;;;;;;;4.00;4.00;;;;;16.63;61.67;98228.63;4923239;28;108937;-64
2022/10/02 05:41:41;;;;;;;;;3.33;3.00;;;;;16.66;61.67;98230.06;4832423;28;102703;-64
2022/10/02 05:44:08;;;;;;;;;3.00;3.00;;;;;16.66;62.03;98232.78;4864999;28;102327;-64
2022/10/02 05:47:00;;;;;;;;;4.67;4.67;;;;;16.67;61.49;98242.59;4906464;28;102322;-64
2022/10/02 05:49:43;;;;;;;;;4.00;3.00;;;;;16.68;61.77;98242.38;4916471;28;107873;-64
2022/10/02 05:52:13;;;;;;;;;3.00;2.00;;;;;16.67;61.60;98229.78;4918045;28;102126;-64
2022/10/02 05:54:42;;;;;;;;;3.00;3.00;;;;;16.67;61.41;98243.44;4932386;28;102460;-64
2022/10/02 05:57:15;;;;;;;;;4.00;3.00;;;;;16.67;61.54;98232.53;4930607;28;103083;-64
2022/10/02 05:59:47;;;;;;;;;2.00;2.00;;;;;16.66;61.86;98236.31;4919056;28;104057;-64
2022/10/02 06:02:45;;;;;;;;;5.00;4.00;;;;;16.68;60.89;98250.56;4903673;28;102329;-64
2022/10/02 06:05:21;;;;;;;;;4.33;4.33;;;;;16.68;62.00;98244.28;4923885;28;102133;-64
2022/10/02 06:07:51;;;;;;;;;2.33;2.00;;;;;16.68;61.66;98250.56;4916280;28;102563;-64
2022/10/02 06:10:21;;;;;;;;;2.00;2.00;;;;;16.67;61.80;98261.72;4934171;28;108893;-64
2022/10/02 06:12:54;;;;;;;;;2.67;2.67;;;;;16.68;61.11;98253.28;4935000;28;102379;-64
2022/10/02 06:15:25;;;;;;;;;2.67;2.67;;;;;16.69;60.96;98265.03;4915653;28;102012;-64
2022/10/02 06:17:58;;;;;;;;;3.00;3.00;;;;;16.68;61.50;98266.94;4933825;28;102344;-64
2022/10/02 06:20:38;;;;;;;;;2.00;2.00;;;;;16.68;62.07;98258.75;4926277;28;104036;-64
2022/10/02 06:23:19;;;;;;;;;3.00;3.00;;;;;16.68;60.90;98261.47;4916956;28;102484;-64
2022/10/02 06:26:07;;;;;;;;;2.00;2.00;;;;;16.69;61.17;98259.59;4913564;28;102193;-64
2022/10/02 06:28:50;;;;;;;;;3.00;2.00;;;;;16.69;60.98;98270.50;4920603;28;102585;-65
2022/10/02 06:32:08;;;;;;;;;3.33;2.67;;;;;16.69;61.73;98270.50;4926448;28;108892;-64
2022/10/02 06:34:35;;;;;;;;;3.00;3.00;;;;;16.70;61.35;98266.72;4894769;28;102438;-64
2022/10/02 06:37:25;;;;;;;;;3.00;3.00;;;;;16.70;61.63;98275.72;4925699;28;102436;-64
2022/10/02 06:39:55;;;;;;;;;3.33;3.00;;;;;16.71;60.96;98284.72;4888613;28;102633;-64
2022/10/02 06:42:35;;;;;;;;;2.33;2.33;;;;;16.70;61.30;98283.91;4931219;28;104115;-63
2022/10/02 06:45:13;;;;;;;;;3.33;3.00;;;;;16.70;61.29;98283.09;4927539;28;102501;-64
2022/10/02 06:47:58;;;;;;;;;3.00;2.00;;;;;16.69;60.50;98286.88;4927148;28;102317;-64
2022/10/02 06:50:43;;;;;;;;;1.33;1.33;;;;;16.69;60.95;98290.44;4917372;28;102640;-64
2022/10/02 06:53:33;;;;;;;;;2.00;2.00;;;;;16.69;61.37;98287.72;4931157;28;104141;-64
2022/10/02 06:56:02;;;;;;;;;2.33;2.00;;;;;16.68;60.54;98291.50;4922219;28;102305;-64
2022/10/02 06:58:38;;;;;;;;;4.00;2.67;;;;;16.69;61.15;98292.34;4916045;28;102254;-64
2022/10/02 07:01:36;;;;;;;;;3.00;2.00;;;;;16.69;61.42;98286.88;4934402;28;102316;-64
2022/10/02 07:04:15;;;;;;;;;3.00;2.00;;;;;16.68;61.16;98286.06;4913138;28;108647;-64
2022/10/02 07:06:54;;;;;;;;;2.67;2.67;;;;;16.69;60.66;98293.19;4927029;28;102566;-64
2022/10/02 07:09:30;;;;;;;;;2.00;2.00;;;;;16.68;60.48;98302.44;4927146;28;102152;-64
2022/10/02 07:12:16;;;;;;;;;2.33;2.00;;;;;16.68;61.29;98299.69;4925791;28;102364;-64
2022/10/02 07:14:51;;;;;;;;;2.67;2.67;;;;;16.68;60.99;98296.97;4931635;28;104103;-64
2022/10/02 07:17:33;;;;;;;;;3.00;3.00;;;;;16.70;60.74;98304.94;4925687;28;102236;-64
2022/10/02 07:20:17;;;;;;;;;2.00;2.00;;;;;16.70;60.64;98310.38;4930153;28;102206;-64
2022/10/02 07:23:00;;;;;;;;;3.00;3.00;;;;;16.70;61.38;98300.31;4918078;28;102201;-64
2022/10/02 07:25:50;;;;;;;;;3.33;3.00;;;;;16.70;60.93;98294.84;4931556;28;108865;-64
2022/10/02 07:28:26;;;;;;;;;3.00;3.00;;;;;16.71;61.32;98301.09;4932406;28;102270;-64
2022/10/02 07:31:00;;;;;;;;;3.67;3.67;;;;;16.71;60.69;98304.66;4922387;28;102360;-64
2022/10/02 07:33:39;;;;;;;;;3.00;2.33;;;;;16.70;61.41;98308.50;4916907;28;102574;-64
2022/10/02 07:36:12;;;;;;;;;3.33;3.33;;;;;16.71;61.25;98307.38;4931432;28;104660;-64
2022/10/02 07:39:02;;;;;;;;;2.00;2.00;;;;;16.71;61.06;98312.03;4926562;28;104029;-64
2022/10/02 07:41:47;;;;;;;;;2.67;2.00;;;;;16.71;60.54;98304.66;4916532;28;102730;-64
2022/10/02 07:44:20;;;;;;;;;2.33;2.33;;;;;16.71;61.27;98312.84;4915046;28;102596;-64
2022/10/02 07:47:08;;;;;;;;;3.00;2.67;;;;;16.71;60.86;98299.19;4925593;28;108981;-64
2022/10/02 07:49:44;;;;;;;;;3.00;2.67;;;;;16.72;60.72;98313.69;4928930;28;101963;-64
2022/10/02 07:52:32;;;;;;;;;2.67;2.00;;;;;16.72;61.39;98319.97;4919253;28;103016;-64
2022/10/02 07:55:19;;;;;;;;;4.00;3.00;;;;;16.72;60.92;98310.94;4919235;28;102318;-64
2022/10/02 07:57:55;;;;;;;;;1.33;1.33;;;;;16.72;60.72;98325.44;4929783;28;110503;-64
2022/10/02 08:00:23;;;;;;;;;3.00;3.00;;;;;16.72;60.66;98317.25;4915556;28;102404;-64
2022/10/02 08:02:56;;;;;;;;;3.00;3.00;;;;;16.72;61.66;98317.25;4933539;28;102381;-64
2022/10/02 08:05:29;;;;;;;;;3.67;3.00;;;;;16.73;61.04;98323.53;4923018;28;102549;-64
2022/10/02 08:08:00;;;;;;;;;3.00;3.00;;;;;16.72;61.47;98317.25;4920621;28;104250;-64
2022/10/02 08:10:30;;;;;;;;;3.00;2.00;;;;;16.73;60.98;98321.63;4929131;28;102557;-64
2022/10/02 08:13:13;;;;;;;;;4.00;3.00;;;;;16.73;60.44;98316.19;4915218;28;102379;-64
2022/10/02 08:15:40;;;;;;;;;2.00;2.00;;;;;16.74;61.25;98315.09;4933276;28;102514;-64
2022/10/02 08:18:26;;;;;;;;;3.00;2.00;;;;;16.74;60.92;98306.91;4916283;28;104052;-64
2022/10/02 08:21:02;;;;;;;;;2.00;2.00;;;;;16.74;60.95;98306.91;4915015;28;102477;-64
2022/10/02 08:23:38;;;;;;;;;2.33;2.33;;;;;16.76;60.79;98301.19;4920029;28;102336;-64
2022/10/02 08:26:27;;;;;;;;;3.00;2.33;;;;;16.76;60.83;98306.66;4910050;28;102379;-64
2022/10/02 08:29:16;;;;;;;;;2.00;2.00;;;;;16.75;61.58;98297.63;4910718;28;108849;-64
2022/10/02 08:31:43;;;;;;;;;3.00;2.00;;;;;16.76;60.95;98298.47;4918614;28;103947;-64
2022/10/02 08:34:17;;;;;;;;;4.33;3.00;;;;;16.76;61.76;98293.00;4918478;28;102741;-64
2022/10/02 08:37:19;;;;;;;;;2.67;2.67;;;;;16.76;61.45;98299.28;4934181;28;102674;-64
2022/10/02 08:40:21;;;;;;;;;3.00;3.00;;;;;16.76;61.29;98302.03;4900459;28;108833;-64
2022/10/02 08:43:10;;;;;;;;;2.00;2.00;;;;;16.76;61.50;98296.56;4926984;28;102116;-64
2022/10/02 08:46:00;;;;;;;;;2.67;2.67;;;;;16.75;61.17;98300.34;4932799;28;102228;-64
2022/10/02 08:48:43;;;;;;;;;3.67;3.00;;;;;16.77;60.74;98300.13;4886245;28;102263;-64
2022/10/02 08:51:28;;;;;;;;;4.00;2.00;;;;;16.76;61.42;98295.72;4940186;28;104088;-64
2022/10/02 08:54:24;;;;;;;;;2.00;2.00;;;;;16.76;60.77;98293.81;4935268;28;102220;-64
2022/10/02 08:57:11;;;;;;;;;2.33;2.33;;;;;16.76;60.86;98293.81;4935077;28;102416;-64
2022/10/02 09:00:15;;;;;;;;;3.00;2.00;;;;;16.77;61.91;98298.22;4912933;28;102558;-64
2022/10/02 09:03:04;;;;;;;;;2.00;2.00;;;;;16.78;60.79;98290.84;4919734;28;108962;-64
2022/10/02 09:05:50;;;;;;;;;4.67;3.33;;;;;16.78;60.86;98299.06;4918139;28;110101;-64
2022/10/02 09:08:41;;;;;;;;;4.00;4.00;;;;;16.78;61.34;98291.69;4924862;28;102264;-64
2022/10/02 09:11:56;;;;;;;;;1.00;1.00;;;;;16.80;60.44;98289.53;4924969;28;102278;-65
2022/10/02 09:14:38;;;;;;;;;2.00;2.00;;;;;16.79;60.68;98279.69;4918089;28;108911;-64
2022/10/02 09:17:13;;;;;;;;;2.67;2.00;;;;;16.80;61.58;98289.53;4925616;28;102438;-64
2022/10/02 09:19:51;;;;;;;;;3.00;2.33;;;;;16.81;60.95;98284.88;4931703;28;102586;-64
2022/10/02 09:22:28;;;;;;;;;3.00;2.00;;;;;16.80;61.37;98281.31;4922207;28;102362;-64
2022/10/02 09:25:19;;;;;;;;;2.00;2.00;;;;;16.80;60.94;98278.59;4909951;28;108376;-64
2022/10/02 09:27:52;;;;;;;;;3.00;2.00;;;;;16.81;61.37;98271.25;4931847;28;102163;-64
2022/10/02 09:30:41;;;;;;;;;3.67;3.00;;;;;16.81;61.24;98263.88;4937314;28;102652;-64
2022/10/02 09:33:21;;;;;;;;;2.00;2.00;;;;;16.80;60.66;98262.22;4937586;28;102605;-64
2022/10/02 09:35:54;;;;;;;;;2.00;2.00;;;;;16.81;60.92;98263.88;4943314;28;108947;-64
2022/10/02 09:38:28;;;;;;;;;2.00;2.00;;;;;16.81;61.29;98250.22;4935491;28;102297;-64
2022/10/02 09:41:36;;;;;;;;;2.00;2.00;;;;;16.81;60.58;98249.38;4941248;28;102460;-64
2022/10/02 09:44:22;;;;;;;;;2.00;2.00;;;;;16.81;60.45;98242.03;4936052;28;102184;-65
2022/10/02 09:47:11;;;;;;;;;2.00;2.00;;;;;16.83;61.62;98245.34;4921230;28;109164;-64
2022/10/02 09:49:43;;;;;;;;;2.00;2.00;;;;;16.83;60.36;98244.53;4944958;28;102301;-64
2022/10/02 09:52:22;;;;;;;;;4.00;2.00;;;;;16.84;61.22;98246.19;4940541;28;103177;-64
2022/10/02 09:54:52;;;;;;;;;1.00;1.00;;;;;16.85;60.87;98253.28;4940734;28;102349;-65
2022/10/02 09:57:53;;;;;;;;;2.00;2.00;;;;;16.84;61.39;98230.59;4937419;28;109018;-64
2022/10/02 10:00:38;;;;;;;;;2.00;2.00;;;;;16.86;60.84;98250.31;4931855;28;102145;-64
2022/10/02 10:03:35;;;;;;;;;3.00;2.00;;;;;16.86;61.18;98244.84;4921028;28;102975;-64
2022/10/02 10:06:27;;;;;;;;;1.00;1.00;;;;;16.86;61.32;98247.56;4935201;28;102161;-64
2022/10/02 10:09:04;;;;;;;;;2.67;2.67;;;;;16.87;61.32;98251.13;4936848;28;108936;-64
2022/10/02 10:11:36;;;;;;;;;2.00;2.00;;;;;16.86;60.86;98247.56;4903825;28;102446;-64
2022/10/02 10:14:33;;;;;;;;;2.00;2.00;;;;;16.87;60.73;98246.50;4937224;28;102351;-64
2022/10/02 10:17:18;;;;;;;;;1.67;1.67;;;;;16.88;61.22;98237.25;4867837;28;102590;-64
2022/10/02 10:19:58;;;;;;;;;2.00;1.00;;;;;16.88;60.77;98241.88;4932020;28;104079;-64
2022/10/02 10:22:48;;;;;;;;;2.33;2.00;;;;;16.88;61.26;98244.59;4930814;28;102518;-64
2022/10/02 10:25:50;;;;;;;;;2.00;2.00;;;;;16.88;61.62;98239.13;4926394;28;103031;-64
2022/10/02 10:28:40;;;;;;;;;2.00;2.00;;;;;16.88;61.04;98229.03;4931076;28;102320;-64
2022/10/02 10:31:34;;;;;;;;;2.00;1.00;;;;;16.88;60.76;98220.84;4941499;28;108901;-64
2022/10/02 10:34:20;;;;;;;;;2.00;2.00;;;;;16.89;60.73;98229.84;4940641;28;102241;-64
2022/10/02 10:39:52;;;;;;;;;1.00;1.00;;;;;16.89;61.04;98221.66;4917199;28;107921;-64
2022/10/02 10:42:52;;;;;;;;;1.67;1.67;;;;;16.90;61.22;98221.41;4927456;28;108942;-64
2022/10/02 10:45:45;;;;;;;;;2.00;2.00;;;;;16.89;60.61;98227.94;4934244;28;102212;-64
2022/10/02 10:48:42;;;;;;;;;3.00;3.00;;;;;16.91;61.17;98223.06;4917500;28;102343;-64
2022/10/02 10:51:36;;;;;;;;;2.33;2.33;;;;;16.91;60.36;98228.53;4908784;28;102286;-64
2022/10/02 10:54:30;;;;;;;;;2.00;1.00;;;;;16.92;61.03;98218.44;4926007;28;110084;-64
2022/10/02 10:57:03;;;;;;;;;3.33;3.00;;;;;16.93;60.77;98218.16;4940903;28;102643;-64
2022/10/02 10:59:51;;;;;;;;;2.00;2.00;;;;;16.92;61.42;98213.81;4945343;28;102375;-63
2022/10/02 11:02:21;;;;;;;;;1.00;1.00;;;;;16.94;60.24;98208.06;4944258;28;102175;-65
2022/10/02 11:05:02;;;;;;;;;2.00;2.00;;;;;16.93;61.42;98201.00;4929554;28;108925;-65
2022/10/02 11:07:49;;;;;;;;;2.00;2.00;;;;;16.92;61.26;98211.09;4927546;28;102360;-64
2022/10/02 11:10:37;;;;;;;;;3.00;2.00;;;;;16.93;60.81;98215.44;4923688;28;102311;-65
2022/10/02 11:13:12;;;;;;;;;2.33;2.00;;;;;16.93;61.12;98212.72;4948333;28;102219;-64
2022/10/02 11:15:43;;;;;;;;;1.67;1.67;;;;;16.93;60.28;98212.72;4929736;28;103704;-65
2022/10/02 11:18:16;;;;;;;;;2.00;2.00;;;;;16.94;61.26;98225.28;4921253;28;102184;-64
2022/10/02 11:21:09;;;;;;;;;3.00;2.00;;;;;16.93;60.66;98250.94;4926829;28;102241;-64
2022/10/02 11:23:36;;;;;;;;;2.00;1.67;;;;;16.93;60.81;98242.75;4930337;28;102330;-64
2022/10/02 11:26:40;;;;;;;;;1.00;1.00;;;;;16.93;61.26;98236.50;4917148;28;104070;-65
2022/10/02 11:29:31;;;;;;;;;2.00;2.00;;;;;16.94;61.06;98232.66;4932639;28;102392;-64
2022/10/02 11:32:27;;;;;;;;;1.67;1.00;;;;;16.93;61.06;98231.81;4930876;28;104843;-64
2022/10/02 11:35:12;;;;;;;;;1.67;1.67;;;;;16.94;61.20;98227.19;4948744;28;102287;-63
2022/10/02 11:38:00;;;;;;;;;1.33;1.33;;;;;16.94;60.77;98228.03;4923889;28;104092;-64
2022/10/02 11:40:48;;;;;;;;;2.00;2.00;;;;;16.94;60.54;98219.84;4921618;28;102307;-64
2022/10/02 11:43:38;;;;;;;;;2.00;2.00;;;;;16.94;60.60;98217.09;4922379;28;102504;-64
2022/10/02 11:46:10;;;;;;;;;2.00;1.00;;;;;16.97;60.96;98217.69;4924997;28;102676;-64
2022/10/02 11:48:52;;;;;;;;;2.00;2.00;;;;;16.97;60.66;98206.75;4928015;28;104262;-64
2022/10/02 11:51:45;;;;;;;;;1.00;1.00;;;;;16.97;61.05;98212.22;4922366;28;102435;-64
2022/10/02 11:54:35;;;;;;;;;1.67;1.67;;;;;16.98;60.46;98205.66;4931177;28;102225;-64
2022/10/02 11:57:20;;;;;;;;;2.00;2.00;;;;;16.98;61.18;98202.94;4919965;28;102521;-64
2022/10/02 11:59:55;;;;;;;;;2.67;2.00;;;;;16.99;60.57;98207.31;4916667;28;104029;-64
2022/10/02 12:02:42;;;;;;;;;2.00;2.00;;;;;16.98;60.59;98216.59;4927293;28;102200;-64
2022/10/02 12:05:21;;;;;;;;;2.00;2.00;;;;;16.99;60.75;98199.13;4924101;28;102545;-64
2022/10/02 12:08:09;;;;;;;;;2.00;2.00;;;;;16.99;60.52;98201.84;4924003;28;102202;-64
2022/10/02 12:10:44;;;;;;;;;2.00;2.00;;;;;16.99;61.45;98183.56;4898990;28;109061;-64
2022/10/02 12:13:33;;;;;;;;;1.00;1.00;;;;;17.00;61.00;98179.78;4934626;28;102481;-64
2022/10/02 12:16:15;;;;;;;;;3.00;3.00;;;;;17.02;61.38;98176.78;4925662;28;102221;-64
2022/10/02 12:19:37;;;;;;;;;1.00;1.00;;;;;17.03;60.98;98181.16;4921475;28;102480;-64
2022/10/02 12:28:27;;;;;;;;;2.00;1.00;;;;;17.06;61.11;98173.31;4931632;28;102445;-64
2022/10/02 12:31:00;;;;;;;;;3.00;1.00;;;;;17.08;60.46;98170.28;4930160;28;102682;-62
2022/10/02 12:33:48;;;;;;;;;3.33;1.67;;;;;17.08;60.81;98171.13;4928689;28;105540;-63
2022/10/02 12:36:39;;;;;;;;;1.00;1.00;;;;;17.09;61.45;98171.97;4949625;28;102559;-64
2022/10/02 12:39:27;;;;;;;;;2.00;2.00;;;;;17.09;60.89;98171.97;4931428;28;102204;-64